Impacts METAR Board
IDs:

KPHX - Phoenix/Sky Harbor, AZ, US

Updated at: 2100 UTC 21 May 2022
Potential Impact None Slight Moderate High
Time 21/09Z 21/10Z 21/11Z 21/12Z 21/13Z 21/14Z 21/15Z 21/16Z 21/17Z 21/18Z 21/19Z 21/20Z 21/21Z
Temp77 76 75 71 70 74 77 80 83 85 87 90 92
Dewpt40 41 41 42 43 44 42 41 41 41 39 37 38
Altim29.73 29.74 29.76 29.77 29.79 29.82 29.83 29.83 29.84 29.84 29.84 29.82 29.81
VIS10 10 10 10 10 10 10 10 10 10 10 10 10
CIG-- -- -- -- -- -- -- -- -- -- -- -- --
CoverCLRCLRCLRCLRCLRCLRCLRCLRCLRCLRCLRCLRCLR
FltCatVFRVFRVFRVFRVFRVFRVFRVFRVFRVFRVFRVFRVFR
WX--------------------------
WDir280300320230220070170190200190250240
WSpd8 7 5 5 4 0 3 12 10 10 9 7 11
WGst-- -- -- -- -- -- -- 21 17 -- 16 17 16
Raw hourly METARs
KPHX 210851Z 28008KT 10SM CLR 25/04 A2973 RMK AO2 SLP047 T02500044 51014
KPHX 210951Z 30007KT 10SM CLR 24/05 A2974 RMK AO2 SLP050 T02440050
KPHX 211051Z 32005KT 10SM CLR 24/05 A2976 RMK AO2 SLP059 T02390050
KPHX 211151Z 23005KT 10SM CLR 22/06 A2977 RMK AO2 SLP063 T02170056 10278 20217 51015
KPHX 211251Z 22004KT 10SM CLR 21/06 A2979 RMK AO2 SLP072 T02110061
KPHX 211351Z 00000KT 10SM CLR 23/07 A2982 RMK AO2 SLP080 T02330067
KPHX 211451Z 07003KT 10SM CLR 25/06 A2983 RMK AO2 SLP082 T02500056 51018
KPHX 211551Z 17012G21KT 10SM CLR 27/05 A2983 RMK AO2 SLP084 T02670050
KPHX 211651Z 19010G17KT 10SM CLR 28/05 A2984 RMK AO2 SLP085 T02830050
KPHX 211751Z 20010KT 10SM CLR 29/05 A2984 RMK AO2 SLP086 T02940050 10294 20211 51004
KPHX 211851Z 19009G16KT 10SM CLR 31/04 A2984 RMK AO2 SLP085 T03060039
KPHX 211951Z 25007G17KT 10SM CLR 32/03 A2982 RMK AO2 SLP079 T03220028
KPHX 212051Z 24011G16KT 10SM CLR 33/03 A2981 RMK AO2 SLP076 T03330033 58010



Page loaded:  21:43 UTC  |   02:43 PM Pacific  |   03:43 PM Mountain  |   04:43 PM Central  |   05:43 PM Eastern

 

ADVISORIES

FORECASTS

FORECASTS

OBSERVATIONS

USER TOOLS

ABOUT US